Time;durP1;ratioP1;P1;durP2;ratioP2;P2;SDS_P1;SDS_P2;PMS_P1;PMS_P2;Temp;Humidity;BMP_temperature;BMP_pressure;BME280_temperature;BME280_humidity;BME280_pressure;Samples;Min_cycle;Max_cycle;Signal;HPM_P1;HPM_P2
2022/04/02 00:01:43;;;;;;;1.90;1.70;;;2.30;99.90;;;;;;5064094;28;20267;-49
2022/04/02 00:04:13;;;;;;;6.20;2.00;;;2.30;99.90;;;;;;5044310;28;20320;-50
2022/04/02 00:06:39;;;;;;;1.87;1.77;;;2.30;99.90;;;;;;5064490;28;20221;-45
2022/04/02 00:09:06;;;;;;;1.93;1.27;;;2.30;99.90;;;;;;5056488;28;20201;-48
2022/04/02 00:11:33;;;;;;;3.53;1.20;;;2.30;99.90;;;;;;5065106;28;20645;-48
2022/04/02 00:14:00;;;;;;;2.63;1.30;;;2.30;99.90;;;;;;5062618;28;20597;-46
2022/04/02 00:16:27;;;;;;;1.60;1.50;;;2.20;99.90;;;;;;5063582;28;20837;-46
2022/04/02 00:18:54;;;;;;;3.30;1.73;;;2.20;99.90;;;;;;5051300;28;20216;-47
2022/04/02 00:21:22;;;;;;;3.60;1.43;;;2.20;99.90;;;;;;5061976;28;20197;-44
2022/04/02 00:23:49;;;;;;;2.67;1.80;;;2.20;99.90;;;;;;5059073;28;20225;-46
2022/04/02 00:26:20;;;;;;;3.23;1.70;;;2.20;99.90;;;;;;5060709;28;20209;-47
2022/04/02 00:28:49;;;;;;;2.10;1.30;;;2.20;99.90;;;;;;5064336;28;20617;-47
2022/04/02 00:31:17;;;;;;;4.63;1.83;;;2.20;99.90;;;;;;5054515;28;20197;-45
2022/04/02 00:33:47;;;;;;;1.90;1.40;;;2.20;99.90;;;;;;5055106;28;20601;-44
2022/04/02 00:36:14;;;;;;;4.03;1.87;;;2.20;99.90;;;;;;5058367;28;20213;-44
2022/04/02 00:38:43;;;;;;;2.67;1.30;;;2.20;99.90;;;;;;5064440;28;20232;-45
2022/04/02 00:41:12;;;;;;;2.40;1.77;;;2.20;99.90;;;;;;5051241;28;20195;-45
2022/04/02 00:43:42;;;;;;;2.80;1.60;;;2.20;99.90;;;;;;5064199;28;20237;-46
2022/04/02 00:46:10;;;;;;;3.37;1.50;;;2.20;99.90;;;;;;5060154;28;20229;-47
2022/04/02 00:48:38;;;;;;;2.30;1.40;;;2.20;99.90;;;;;;5053248;28;20212;-45
2022/04/02 00:51:07;;;;;;;4.60;1.40;;;2.20;99.90;;;;;;5059415;28;20198;-47
2022/04/02 00:53:37;;;;;;;2.27;1.70;;;2.20;99.90;;;;;;5063794;28;20204;-44
2022/04/02 00:56:06;;;;;;;2.03;1.43;;;2.20;99.90;;;;;;5055884;28;20231;-46
2022/04/02 00:58:33;;;;;;;2.13;1.60;;;2.20;99.90;;;;;;5062730;28;20201;-46
2022/04/02 01:01:01;;;;;;;2.33;1.43;;;2.20;99.90;;;;;;5060704;28;20210;-49
2022/04/02 01:03:34;;;;;;;2.00;1.80;;;2.20;99.90;;;;;;5049028;28;20232;-44
2022/04/02 01:06:01;;;;;;;2.17;1.50;;;2.20;99.90;;;;;;5053147;28;20234;-44
2022/04/02 01:08:30;;;;;;;2.97;1.60;;;2.20;99.90;;;;;;5054381;28;20198;-48
2022/04/02 01:10:58;;;;;;;3.27;1.83;;;2.20;99.90;;;;;;5057123;28;20202;-44
2022/04/02 01:13:27;;;;;;;2.53;2.00;;;2.20;99.90;;;;;;5059990;28;20535;-45
2022/04/02 01:15:56;;;;;;;5.83;1.60;;;2.20;99.90;;;;;;5060987;28;20241;-46
2022/04/02 01:18:24;;;;;;;3.93;1.53;;;2.20;99.90;;;;;;5051891;28;20251;-51
2022/04/02 01:20:53;;;;;;;2.30;1.40;;;2.20;99.90;;;;;;5058928;28;20633;-48
2022/04/02 01:23:29;;;;;;;3.10;1.70;;;2.20;99.90;;;;;;5060303;28;20224;-48
2022/04/02 01:25:59;;;;;;;4.40;1.83;;;2.20;99.90;;;;;;5056342;28;20608;-44
2022/04/02 01:28:33;;;;;;;5.07;1.70;;;2.20;99.90;;;;;;5058061;28;20208;-46
2022/04/02 01:31:03;;;;;;;2.63;1.60;;;2.20;99.90;;;;;;5062483;28;20267;-44
2022/04/02 01:33:31;;;;;;;3.03;1.50;;;2.20;99.90;;;;;;5052780;28;20208;-46
2022/04/02 01:35:59;;;;;;;2.70;1.57;;;2.20;99.90;;;;;;5048178;28;20225;-48
2022/04/02 01:38:29;;;;;;;2.43;1.50;;;2.20;99.90;;;;;;5056347;28;20596;-48
2022/04/02 01:40:58;;;;;;;3.73;1.50;;;2.20;99.90;;;;;;5061965;28;20210;-47
2022/04/02 01:43:33;;;;;;;2.57;1.50;;;2.20;99.90;;;;;;5050991;28;20220;-45
2022/04/02 01:46:01;;;;;;;3.80;1.67;;;2.20;99.90;;;;;;5062507;28;20209;-45
2022/04/02 01:48:30;;;;;;;2.53;1.80;;;2.20;99.90;;;;;;5058320;28;20222;-47
2022/04/02 01:51:03;;;;;;;2.77;1.90;;;2.20;99.90;;;;;;5048483;28;20322;-46
2022/04/02 01:53:32;;;;;;;2.47;1.60;;;2.20;99.90;;;;;;5057752;28;20197;-50
2022/04/02 01:55:59;;;;;;;5.93;1.90;;;2.20;99.90;;;;;;5061500;28;20229;-44
2022/04/02 01:58:36;;;;;;;4.60;2.23;;;2.20;99.90;;;;;;5054649;28;20192;-45
2022/04/02 02:01:06;;;;;;;4.63;1.70;;;2.20;99.90;;;;;;5062173;28;20237;-46
2022/04/02 02:03:34;;;;;;;1.50;1.30;;;2.20;99.90;;;;;;5057545;28;20217;-44
2022/04/02 02:06:01;;;;;;;2.83;1.70;;;2.20;99.90;;;;;;5062453;28;20420;-45
2022/04/02 02:08:29;;;;;;;2.50;2.00;;;2.20;99.90;;;;;;5044649;28;20694;-44
2022/04/02 02:11:07;;;;;;;2.57;1.77;;;2.10;99.90;;;;;;5063346;28;20553;-47
2022/04/02 02:13:40;;;;;;;2.90;1.80;;;2.10;99.90;;;;;;5048203;28;20195;-48
2022/04/02 02:16:11;;;;;;;1.80;1.70;;;2.10;99.90;;;;;;5061571;28;20743;-45
2022/04/02 02:18:39;;;;;;;3.07;2.07;;;2.10;99.90;;;;;;5058389;28;20204;-46
2022/04/02 02:21:05;;;;;;;2.57;1.90;;;2.10;99.90;;;;;;5061708;28;20594;-45
2022/04/02 02:23:32;;;;;;;2.27;2.07;;;2.10;99.90;;;;;;5044119;28;20217;-47
2022/04/02 02:26:00;;;;;;;3.53;2.00;;;2.10;99.90;;;;;;5061138;28;20719;-46
2022/04/02 02:28:28;;;;;;;3.00;1.73;;;2.10;99.90;;;;;;5054498;28;20742;-50
2022/04/02 02:30:58;;;;;;;2.53;1.90;;;2.10;99.90;;;;;;5061410;28;20213;-48
2022/04/02 02:36:11;;;;;;;2.00;1.80;;;2.00;99.90;;;;;;5060668;28;20228;-45
2022/04/02 02:38:57;;;;;;;2.10;1.90;;;2.00;99.90;;;;;;5061878;28;20330;-46
2022/04/02 02:41:38;;;;;;;4.80;2.00;;;2.00;99.90;;;;;;5052076;28;20540;-45
2022/04/02 02:44:10;;;;;;;4.30;1.80;;;2.00;99.90;;;;;;5061509;28;20327;-45
2022/04/02 02:46:42;;;;;;;3.13;1.83;;;1.90;99.90;;;;;;5070988;28;20220;-45
2022/04/02 02:49:22;;;;;;;4.43;2.13;;;1.90;99.90;;;;;;5059380;28;20205;-45
2022/04/02 02:51:51;;;;;;;3.10;1.60;;;1.90;99.90;;;;;;5064639;28;20204;-44
2022/04/02 02:54:22;;;;;;;3.23;2.03;;;1.90;99.90;;;;;;5046770;28;20276;-47
2022/04/02 02:56:50;;;;;;;2.97;2.10;;;1.80;99.90;;;;;;5063506;28;20296;-45
2022/04/02 02:59:18;;;;;;;3.07;2.20;;;1.80;99.90;;;;;;5064240;28;20200;-47
2022/04/02 03:01:46;;;;;;;5.00;1.97;;;1.80;99.90;;;;;;5057589;28;20898;-44
2022/04/02 03:04:14;;;;;;;4.00;2.07;;;1.80;99.90;;;;;;5064552;28;20222;-44
2022/04/02 03:06:41;;;;;;;3.33;1.80;;;1.70;99.90;;;;;;5061475;28;20237;-45
2022/04/02 03:09:08;;;;;;;2.90;1.97;;;1.70;99.90;;;;;;5048836;28;20206;-44
2022/04/02 03:11:36;;;;;;;2.17;1.87;;;1.70;99.90;;;;;;5059901;28;20228;-48
2022/04/02 03:14:03;;;;;;;2.80;2.20;;;1.70;99.90;;;;;;5066087;28;20204;-48
2022/04/02 03:16:32;;;;;;;2.30;2.17;;;1.60;99.90;;;;;;5055876;28;20221;-48
2022/04/02 03:19:06;;;;;;;2.47;1.77;;;1.60;99.90;;;;;;5064154;28;20202;-46
2022/04/02 03:21:34;;;;;;;2.47;2.17;;;1.60;99.90;;;;;;5062253;28;20551;-50
2022/04/02 03:24:02;;;;;;;3.63;2.23;;;1.60;99.90;;;;;;5051381;28;20227;-47
2022/04/02 03:26:34;;;;;;;3.43;2.60;;;1.60;99.90;;;;;;5059836;28;20231;-45
2022/04/02 03:29:06;;;;;;;3.80;1.77;;;1.60;99.90;;;;;;5058980;28;20688;-44
2022/04/02 03:31:35;;;;;;;2.57;2.13;;;1.60;99.90;;;;;;5060464;28;20295;-46
2022/04/02 03:34:01;;;;;;;4.17;2.00;;;1.50;99.90;;;;;;5063819;28;20286;-48
2022/04/02 03:36:28;;;;;;;3.03;1.77;;;1.50;99.90;;;;;;5061374;28;20760;-50
2022/04/02 03:38:57;;;;;;;3.53;2.17;;;1.50;99.90;;;;;;5064505;28;20205;-46
2022/04/02 03:41:26;;;;;;;4.63;2.10;;;1.50;99.90;;;;;;5050607;28;20221;-51
2022/04/02 03:43:53;;;;;;;2.80;1.83;;;1.50;99.90;;;;;;5063703;28;20589;-44
2022/04/02 03:49:13;;;;;;;3.33;2.27;;;1.40;99.90;;;;;;5061195;28;20288;-47
2022/04/02 03:51:41;;;;;;;2.83;2.40;;;1.40;99.90;;;;;;5062730;28;20391;-46
2022/04/02 03:54:14;;;;;;;1.70;1.60;;;1.40;99.90;;;;;;5063690;28;20783;-47
2022/04/02 03:56:46;;;;;;;4.47;2.50;;;1.40;99.90;;;;;;5049010;28;20871;-47
2022/04/02 03:59:16;;;;;;;2.23;2.03;;;1.40;99.90;;;;;;5062837;28;20231;-49
2022/04/02 04:01:48;;;;;;;2.80;1.90;;;1.40;99.90;;;;;;5056450;28;20858;-45
2022/04/02 04:04:17;;;;;;;2.73;2.53;;;1.40;99.90;;;;;;5061418;28;20227;-47
2022/04/02 04:06:45;;;;;;;2.90;2.10;;;1.30;99.90;;;;;;5060007;28;20211;-45
2022/04/02 04:09:14;;;;;;;4.70;1.97;;;1.30;99.90;;;;;;5057640;28;20207;-46
2022/04/02 04:11:45;;;;;;;4.13;2.10;;;1.30;99.90;;;;;;5051612;28;20215;-44
2022/04/02 04:14:13;;;;;;;3.03;2.13;;;1.30;99.90;;;;;;5057636;28;20206;-50
2022/04/02 04:16:41;;;;;;;1.83;1.73;;;1.30;99.90;;;;;;5059080;28;20210;-45
2022/04/02 04:19:08;;;;;;;4.83;1.97;;;1.30;99.90;;;;;;5058475;28;20219;-48
2022/04/02 04:21:37;;;;;;;3.27;2.30;;;1.30;99.90;;;;;;5076126;28;20197;-46
2022/04/02 04:24:06;;;;;;;3.17;2.10;;;1.20;99.90;;;;;;5064736;28;20222;-50
2022/04/02 04:26:33;;;;;;;2.87;1.87;;;1.20;99.90;;;;;;5047067;28;20368;-47
2022/04/02 04:29:00;;;;;;;4.17;2.17;;;1.20;99.90;;;;;;5063481;28;20222;-47
2022/04/02 04:31:27;;;;;;;4.00;1.70;;;1.20;99.90;;;;;;5058216;28;20219;-49
2022/04/02 04:33:54;;;;;;;2.97;1.90;;;1.20;99.90;;;;;;5064300;28;20194;-49
2022/04/02 04:36:22;;;;;;;2.83;1.97;;;1.20;99.90;;;;;;5056740;28;20251;-45
2022/04/02 04:38:51;;;;;;;3.50;2.17;;;1.20;99.90;;;;;;5063103;28;20188;-49
2022/04/02 04:41:21;;;;;;;2.40;2.17;;;1.20;99.90;;;;;;5061509;28;20207;-47
2022/04/02 04:43:53;;;;;;;2.20;1.93;;;1.20;99.90;;;;;;5050173;28;20290;-47
2022/04/02 04:46:25;;;;;;;2.37;1.70;;;1.10;99.90;;;;;;5058744;28;20579;-50
2022/04/02 04:48:56;;;;;;;2.70;1.80;;;1.10;99.90;;;;;;5062784;28;20204;-47
2022/04/02 04:51:24;;;;;;;2.63;2.00;;;1.10;99.90;;;;;;5055172;28;20296;-47
2022/04/02 04:53:53;;;;;;;3.60;1.77;;;1.10;99.90;;;;;;5063164;28;20208;-49
2022/04/02 04:56:21;;;;;;;2.43;1.77;;;1.00;99.90;;;;;;5060231;28;20228;-50
2022/04/02 04:58:48;;;;;;;4.73;2.10;;;1.00;99.90;;;;;;5047716;28;20193;-45
2022/04/02 05:01:17;;;;;;;2.97;1.97;;;1.00;99.90;;;;;;5061234;28;20214;-47
2022/04/02 05:03:44;;;;;;;2.47;1.70;;;1.00;99.90;;;;;;5051824;28;20290;-45
2022/04/02 05:06:16;;;;;;;2.00;1.43;;;1.00;99.90;;;;;;5053304;28;20217;-46
2022/04/02 05:08:48;;;;;;;3.33;2.00;;;1.00;99.90;;;;;;5048418;28;20207;-45
2022/04/02 05:11:18;;;;;;;3.07;1.77;;;1.00;99.90;;;;;;5061480;28;20226;-46
2022/04/02 05:13:49;;;;;;;2.00;1.60;;;1.00;99.90;;;;;;5048407;28;20191;-44
2022/04/02 05:16:20;;;;;;;2.03;1.80;;;1.00;99.90;;;;;;5056022;28;20224;-45
2022/04/02 05:18:48;;;;;;;2.50;1.50;;;1.00;99.90;;;;;;5051551;28;20328;-46
2022/04/02 05:21:18;;;;;;;1.60;1.50;;;0.90;99.90;;;;;;5051934;28;20214;-46
2022/04/02 05:23:45;;;;;;;3.60;1.30;;;0.90;99.90;;;;;;5056924;28;20196;-47
2022/04/02 05:26:12;;;;;;;2.60;1.47;;;1.00;99.90;;;;;;5058941;28;20223;-47
2022/04/02 05:28:42;;;;;;;1.77;1.57;;;1.00;99.90;;;;;;5046716;28;20211;-44
2022/04/02 05:31:10;;;;;;;3.03;2.10;;;1.00;99.90;;;;;;5056117;28;20240;-44
2022/04/02 05:33:37;;;;;;;4.70;1.90;;;1.00;99.90;;;;;;5057712;28;20188;-44
2022/04/02 05:36:05;;;;;;;3.53;2.00;;;1.00;99.90;;;;;;5055921;28;20216;-47
2022/04/02 05:38:32;;;;;;;3.87;1.83;;;1.00;99.90;;;;;;5050380;28;20274;-46
2022/04/02 05:40:59;;;;;;;2.73;1.73;;;1.00;99.90;;;;;;5061547;28;20208;-45
2022/04/02 05:43:26;;;;;;;2.20;1.60;;;1.00;99.90;;;;;;5058937;28;20569;-49
2022/04/02 05:45:54;;;;;;;2.33;1.80;;;1.00;99.90;;;;;;5043663;28;20241;-47
2022/04/02 05:48:21;;;;;;;2.00;1.60;;;1.10;99.90;;;;;;5057740;28;20203;-45
2022/04/02 05:50:48;;;;;;;3.23;1.43;;;1.10;99.90;;;;;;5065835;28;20195;-50
2022/04/02 05:53:15;;;;;;;1.70;1.40;;;1.10;99.90;;;;;;5057105;28;20212;-50
2022/04/02 05:55:42;;;;;;;2.00;1.60;;;1.10;99.90;;;;;;5067072;28;20200;-46
2022/04/02 05:58:11;;;;;;;5.10;2.43;;;1.10;99.90;;;;;;5062227;28;20208;-48
2022/04/02 06:00:38;;;;;;;3.27;1.87;;;1.20;99.90;;;;;;5041681;28;20213;-48
2022/04/02 06:03:06;;;;;;;2.20;1.47;;;1.20;99.90;;;;;;5062972;28;20195;-45
2022/04/02 06:05:34;;;;;;;2.10;1.40;;;1.20;99.90;;;;;;5054908;28;20227;-48
2022/04/02 06:08:00;;;;;;;1.80;1.47;;;1.20;99.90;;;;;;5061028;28;20218;-50
2022/04/02 06:10:27;;;;;;;2.77;1.73;;;1.30;99.90;;;;;;5048359;28;20863;-49
2022/04/02 06:12:54;;;;;;;1.60;1.50;;;1.30;99.90;;;;;;5062651;28;20263;-48
2022/04/02 06:15:24;;;;;;;2.37;1.63;;;1.30;99.90;;;;;;5059356;28;20205;-48
2022/04/02 06:17:51;;;;;;;4.33;2.30;;;1.30;99.90;;;;;;5048389;28;20712;-45
2022/04/02 06:20:20;;;;;;;4.90;1.70;;;1.40;99.90;;;;;;5045920;28;20206;-49
2022/04/02 06:22:46;;;;;;;2.80;1.77;;;1.40;99.90;;;;;;5061646;28;20208;-51
2022/04/02 06:25:13;;;;;;;3.33;2.00;;;1.40;99.90;;;;;;5053613;28;20212;-50
2022/04/02 06:27:42;;;;;;;1.87;1.60;;;1.50;99.90;;;;;;5058172;28;20217;-47
2022/04/02 06:30:10;;;;;;;1.47;1.37;;;1.50;99.90;;;;;;5061071;28;20198;-47
2022/04/02 06:32:38;;;;;;;2.23;1.60;;;1.50;99.90;;;;;;5049718;28;20307;-47
2022/04/02 06:35:05;;;;;;;2.67;1.53;;;1.60;99.90;;;;;;5059318;28;20250;-45
2022/04/02 06:37:35;;;;;;;2.43;1.60;;;1.60;99.90;;;;;;5053911;28;20304;-44
2022/04/02 06:40:02;;;;;;;2.10;1.53;;;1.60;99.90;;;;;;5050325;28;20208;-46
2022/04/02 06:42:29;;;;;;;2.33;2.13;;;1.70;99.90;;;;;;5055004;28;20214;-46
2022/04/02 06:44:56;;;;;;;1.63;1.33;;;1.70;99.90;;;;;;5061215;28;20710;-48
2022/04/02 06:47:27;;;;;;;1.90;1.40;;;1.70;99.90;;;;;;5058127;28;20762;-48
2022/04/02 06:49:54;;;;;;;2.23;1.40;;;1.80;99.90;;;;;;5050949;28;20216;-47
2022/04/02 06:52:22;;;;;;;1.43;1.30;;;1.90;99.90;;;;;;5054596;28;20200;-46
2022/04/02 06:54:51;;;;;;;2.73;1.30;;;1.90;99.90;;;;;;5056627;28;20200;-45
2022/04/02 06:57:19;;;;;;;2.93;1.50;;;1.90;99.90;;;;;;5055402;28;20314;-47
2022/04/02 06:59:45;;;;;;;1.53;1.30;;;2.00;99.90;;;;;;5061980;28;20209;-50
2022/04/02 07:02:12;;;;;;;1.90;1.17;;;2.00;99.90;;;;;;5051275;28;20627;-44
2022/04/02 07:04:40;;;;;;;2.77;1.60;;;2.10;99.90;;;;;;5051060;28;20222;-46
2022/04/02 07:07:06;;;;;;;1.77;1.67;;;2.10;99.90;;;;;;5053103;28;20228;-47
2022/04/02 07:09:33;;;;;;;1.80;1.37;;;2.10;99.90;;;;;;5062291;28;20205;-46
2022/04/02 07:12:01;;;;;;;2.17;1.37;;;2.20;99.90;;;;;;5052660;28;20221;-46
2022/04/02 07:14:28;;;;;;;1.57;1.30;;;2.20;99.90;;;;;;5058337;28;20918;-47
2022/04/02 07:16:55;;;;;;;3.57;1.60;;;2.30;99.90;;;;;;5054175;28;20221;-51
2022/04/02 07:19:24;;;;;;;2.40;1.67;;;2.30;99.90;;;;;;5044365;28;22099;-46
2022/04/02 07:21:52;;;;;;;2.00;1.50;;;2.50;99.90;;;;;;5048142;28;20780;-50
2022/04/02 07:24:20;;;;;;;2.70;1.43;;;2.50;99.90;;;;;;5052769;28;20202;-48
2022/04/02 07:26:49;;;;;;;1.37;1.27;;;2.60;99.90;;;;;;5045884;28;20229;-50
2022/04/02 07:29:18;;;;;;;2.90;1.10;;;2.60;99.90;;;;;;5050650;28;20212;-48
2022/04/02 07:31:45;;;;;;;1.83;0.87;;;2.70;99.90;;;;;;5059597;28;20254;-47
2022/04/02 07:34:13;;;;;;;2.27;1.50;;;2.70;99.90;;;;;;5056949;28;20293;-44
2022/04/02 07:36:59;;;;;;;1.57;0.90;;;2.70;99.90;;;;;;5044810;28;20237;-44
2022/04/02 07:39:34;;;;;;;1.27;0.90;;;2.80;99.90;;;;;;5056327;28;20209;-43
2022/04/02 07:42:08;;;;;;;0.77;0.77;;;2.80;99.90;;;;;;5055488;28;20288;-46
2022/04/02 07:44:48;;;;;;;2.13;1.10;;;2.80;99.90;;;;;;5059113;28;20671;-46
2022/04/02 07:47:15;;;;;;;1.30;1.00;;;2.80;99.90;;;;;;5053502;28;20221;-50
2022/04/02 07:49:47;;;;;;;0.87;0.87;;;2.90;99.90;;;;;;5065297;28;20293;-47
2022/04/02 07:52:15;;;;;;;2.47;0.93;;;3.00;99.90;;;;;;5047007;28;20209;-50
2022/04/02 07:54:43;;;;;;;0.73;0.73;;;3.10;99.90;;;;;;5059856;28;20237;-50
2022/04/02 07:57:12;;;;;;;1.27;0.73;;;3.10;99.90;;;;;;5056283;28;20210;-51
2022/04/02 07:59:52;;;;;;;1.83;0.73;;;3.20;99.70;;;;;;5058738;28;20201;-51
2022/04/02 08:02:38;;;;;;;1.10;0.90;;;3.40;99.60;;;;;;5061728;28;20212;-46
2022/04/02 08:05:07;;;;;;;0.63;0.50;;;3.40;98.30;;;;;;5053448;28;20214;-44
2022/04/02 08:07:36;;;;;;;1.13;0.67;;;3.50;97.90;;;;;;5047809;28;20556;-45
2022/04/02 08:10:06;;;;;;;3.03;0.93;;;3.50;97.50;;;;;;5056803;28;20203;-49
2022/04/02 08:12:36;;;;;;;0.87;0.80;;;3.60;96.70;;;;;;5057998;28;20229;-46
2022/04/02 08:15:06;;;;;;;0.70;0.60;;;3.50;94.90;;;;;;5050527;28;20282;-43
2022/04/02 08:17:34;;;;;;;4.77;0.90;;;3.50;94.50;;;;;;5059317;28;20312;-50
2022/04/02 08:20:02;;;;;;;4.67;0.90;;;3.60;95.00;;;;;;5050739;28;20297;-49
2022/04/02 08:22:29;;;;;;;0.40;0.40;;;3.70;94.40;;;;;;5050755;28;20215;-48
2022/04/02 08:24:58;;;;;;;1.23;0.60;;;3.80;93.40;;;;;;5055947;28;20209;-49
2022/04/02 08:27:32;;;;;;;2.20;0.60;;;3.90;93.20;;;;;;5056572;28;20221;-46
2022/04/02 08:30:06;;;;;;;2.23;0.90;;;4.00;93.20;;;;;;5049971;28;20253;-47
2022/04/02 08:33:00;;;;;;;0.83;0.80;;;4.10;93.20;;;;;;5063417;28;20202;-44
2022/04/02 08:35:34;;;;;;;1.30;0.83;;;4.20;92.30;;;;;;5061577;28;20702;-44
2022/04/02 08:38:11;;;;;;;0.77;0.70;;;4.20;93.00;;;;;;5046839;28;20202;-47
2022/04/02 08:40:50;;;;;;;1.37;0.70;;;4.30;93.30;;;;;;5059081;28;20237;-45
2022/04/02 08:43:59;;;;;;;0.70;0.50;;;4.40;92.70;;;;;;5063206;28;20186;-45
2022/04/02 08:46:37;;;;;;;2.77;0.83;;;4.50;92.20;;;;;;5013124;28;20313;-44
2022/04/02 08:49:23;;;;;;;0.97;0.60;;;4.60;91.60;;;;;;5060235;28;20347;-46
2022/04/02 08:52:12;;;;;;;0.50;0.50;;;4.70;91.70;;;;;;5051021;28;20198;-49
2022/04/02 08:54:41;;;;;;;0.90;0.77;;;4.70;90.00;;;;;;5052207;28;20209;-44
2022/04/02 08:57:23;;;;;;;1.47;0.80;;;4.70;90.40;;;;;;5054923;28;20284;-48
2022/04/02 09:00:04;;;;;;;1.57;0.70;;;4.80;89.90;;;;;;5061501;28;20199;-50
2022/04/02 09:02:56;;;;;;;1.40;0.60;;;4.80;87.70;;;;;;5058737;28;20625;-44
2022/04/02 09:05:29;;;;;;;2.20;0.60;;;4.90;83.20;;;;;;5064019;28;20218;-44
2022/04/02 09:08:23;;;;;;;0.93;0.60;;;4.90;84.40;;;;;;5051989;28;20568;-47
2022/04/02 09:11:22;;;;;;;0.97;0.50;;;4.90;77.70;;;;;;5055725;28;20670;-46
2022/04/02 09:14:04;;;;;;;0.70;0.70;;;4.90;79.20;;;;;;5052513;28;20246;-49
2022/04/02 09:16:37;;;;;;;1.93;0.70;;;5.00;81.70;;;;;;5062326;28;20219;-46
2022/04/02 09:19:26;;;;;;;0.80;0.70;;;5.00;81.80;;;;;;5060017;28;20856;-46
2022/04/02 09:22:04;;;;;;;2.30;0.80;;;5.10;76.90;;;;;;5060839;28;20790;-48
2022/04/02 09:25:01;;;;;;;0.70;0.60;;;5.20;75.30;;;;;;5047388;28;20558;-47
2022/04/02 09:28:00;;;;;;;0.57;0.50;;;5.30;75.80;;;;;;5024012;28;20226;-44
2022/04/02 09:30:53;;;;;;;1.83;0.50;;;5.40;73.10;;;;;;5063072;28;20199;-46
2022/04/02 09:33:47;;;;;;;2.03;0.77;;;5.30;74.50;;;;;;5046415;28;20234;-44
2022/04/02 09:36:31;;;;;;;0.63;0.53;;;5.30;73.40;;;;;;5055596;28;20211;-49
2022/04/02 09:39:07;;;;;;;0.70;0.70;;;5.40;73.10;;;;;;5048056;28;20669;-47
2022/04/02 09:41:56;;;;;;;1.20;0.80;;;5.50;73.70;;;;;;5062260;28;20205;-44
2022/04/02 09:44:40;;;;;;;1.73;0.87;;;5.50;70.70;;;;;;5062656;28;20234;-49
2022/04/02 09:47:16;;;;;;;0.70;0.53;;;5.50;68.90;;;;;;5059382;28;20226;-44
2022/04/02 09:49:55;;;;;;;2.17;1.20;;;5.60;68.90;;;;;;5062506;28;20204;-49
2022/04/02 09:52:26;;;;;;;1.20;0.80;;;5.70;71.60;;;;;;5061276;28;20198;-44
2022/04/02 09:55:08;;;;;;;1.37;0.70;;;5.60;69.90;;;;;;5044932;28;20598;-46
2022/04/02 09:57:51;;;;;;;1.37;0.97;;;5.60;69.70;;;;;;5053172;28;20219;-46
2022/04/02 10:00:20;;;;;;;0.50;0.50;;;5.60;70.30;;;;;;5062049;28;20232;-46
2022/04/02 10:03:04;;;;;;;1.97;0.90;;;5.60;70.60;;;;;;5061505;28;20283;-48
2022/04/02 10:05:45;;;;;;;0.70;0.70;;;5.60;69.20;;;;;;5059767;28;20206;-45
2022/04/02 10:08:27;;;;;;;1.43;0.93;;;5.60;69.30;;;;;;5060408;28;20193;-48
2022/04/02 10:10:57;;;;;;;1.93;1.00;;;5.70;70.60;;;;;;5044268;28;20239;-44
2022/04/02 10:13:25;;;;;;;0.60;0.60;;;5.80;70.30;;;;;;5057405;28;20212;-44
2022/04/02 10:15:55;;;;;;;0.57;0.57;;;5.90;71.30;;;;;;5059393;28;20211;-45
2022/04/02 10:18:25;;;;;;;1.00;0.87;;;6.00;70.00;;;;;;5062376;28;20305;-45
2022/04/02 10:20:54;;;;;;;0.80;0.80;;;6.00;67.60;;;;;;5060781;28;20203;-45
2022/04/02 10:23:23;;;;;;;0.70;0.70;;;6.00;67.80;;;;;;5062111;28;20269;-44
2022/04/02 10:26:02;;;;;;;1.27;0.80;;;6.00;65.00;;;;;;5046777;28;20231;-47
2022/04/02 10:28:32;;;;;;;0.97;0.67;;;5.80;64.50;;;;;;5061975;28;20252;-44
2022/04/02 10:31:02;;;;;;;0.63;0.60;;;5.70;67.00;;;;;;5054100;28;20707;-44
2022/04/02 10:33:36;;;;;;;1.17;0.83;;;5.90;67.50;;;;;;5060994;28;20233;-51
2022/04/02 10:36:08;;;;;;;0.60;0.60;;;6.00;68.60;;;;;;5046629;28;20694;-47
2022/04/02 10:38:37;;;;;;;0.80;0.70;;;6.10;67.20;;;;;;5049459;28;20199;-44
2022/04/02 10:41:17;;;;;;;1.20;0.80;;;6.20;68.50;;;;;;5029470;28;20218;-47
2022/04/02 10:43:53;;;;;;;1.40;0.70;;;6.30;66.10;;;;;;5054025;28;20215;-44
2022/04/02 10:46:24;;;;;;;1.40;1.10;;;6.40;67.80;;;;;;5053005;28;20225;-47
2022/04/02 10:48:57;;;;;;;0.80;0.80;;;6.50;67.80;;;;;;5045933;28;20202;-44
2022/04/02 10:51:26;;;;;;;0.80;0.80;;;6.60;66.20;;;;;;5060263;28;20294;-46
2022/04/02 10:54:01;;;;;;;1.07;0.80;;;6.40;66.00;;;;;;5053287;28;20198;-45
2022/04/02 10:56:33;;;;;;;1.20;0.70;;;6.20;68.10;;;;;;5042879;28;20217;-48
2022/04/02 10:59:00;;;;;;;2.40;0.90;;;6.10;66.60;;;;;;5052985;28;20218;-48
2022/04/02 11:01:27;;;;;;;0.87;0.87;;;5.90;68.10;;;;;;5056167;28;20591;-46
2022/04/02 11:03:56;;;;;;;1.47;0.90;;;5.60;67.00;;;;;;5047137;28;20214;-43
2022/04/02 11:06:46;;;;;;;1.57;0.87;;;5.50;68.30;;;;;;5060827;28;20218;-46
2022/04/02 11:09:28;;;;;;;1.53;0.80;;;5.40;66.20;;;;;;5054255;28;20249;-44
2022/04/02 11:11:57;;;;;;;1.20;0.67;;;5.40;66.00;;;;;;5036632;28;20202;-47
2022/04/02 11:14:24;;;;;;;0.93;0.80;;;5.30;67.50;;;;;;5051725;28;20194;-47
2022/04/02 11:16:50;;;;;;;1.67;0.70;;;5.40;67.40;;;;;;5054497;28;20218;-48
2022/04/02 11:22:06;;;;;;;1.40;0.80;;;5.80;66.10;;;;;;5059707;28;20187;-45
2022/04/02 11:24:49;;;;;;;1.23;1.10;;;5.90;65.30;;;;;;5060748;28;20198;-50
2022/04/02 11:27:18;;;;;;;1.40;1.30;;;6.10;66.50;;;;;;5049636;28;20210;-46
2022/04/02 11:29:50;;;;;;;1.60;0.70;;;6.20;65.40;;;;;;5059153;28;20244;-48
2022/04/02 11:32:25;;;;;;;1.50;0.87;;;6.20;62.90;;;;;;5059862;28;20566;-45
2022/04/02 11:34:53;;;;;;;1.30;1.17;;;6.20;64.50;;;;;;5048889;28;20202;-45
2022/04/02 11:37:26;;;;;;;0.87;0.80;;;6.50;67.50;;;;;;5064382;28;20230;-49
2022/04/02 11:40:02;;;;;;;3.20;1.03;;;6.60;66.40;;;;;;5059780;28;20191;-50
2022/04/02 11:42:34;;;;;;;1.53;1.07;;;6.50;66.20;;;;;;5062306;28;20197;-45
2022/04/02 11:45:05;;;;;;;1.73;0.97;;;6.40;66.60;;;;;;5055087;28;20218;-44
2022/04/02 11:47:36;;;;;;;1.07;1.00;;;6.20;66.80;;;;;;5054620;28;20215;-51
2022/04/02 11:50:06;;;;;;;3.07;1.30;;;6.00;68.30;;;;;;5062360;28;20206;-49
2022/04/02 11:52:53;;;;;;;1.67;1.47;;;5.90;66.70;;;;;;5051689;28;20209;-48
2022/04/02 11:55:21;;;;;;;1.33;1.23;;;5.90;68.40;;;;;;5064836;28;20209;-45
2022/04/02 11:58:07;;;;;;;2.80;0.87;;;6.20;69.10;;;;;;5050026;28;20213;-44
2022/04/02 12:00:37;;;;;;;1.43;1.13;;;6.20;67.40;;;;;;5048499;28;20230;-44
2022/04/02 12:03:05;;;;;;;1.23;1.00;;;6.10;68.20;;;;;;5051719;28;22690;-47
2022/04/02 12:05:41;;;;;;;2.60;1.17;;;6.10;68.60;;;;;;5063925;28;20213;-45
2022/04/02 12:08:10;;;;;;;1.17;1.00;;;6.00;66.00;;;;;;5062616;28;20232;-43
2022/04/02 12:10:46;;;;;;;1.20;1.10;;;5.80;67.30;;;;;;5061563;28;20614;-48
2022/04/02 12:13:13;;;;;;;1.40;0.90;;;5.70;66.60;;;;;;5059100;28;20255;-46
2022/04/02 12:15:41;;;;;;;2.63;1.23;;;5.60;68.00;;;;;;5050109;28;20248;-47
2022/04/02 12:18:09;;;;;;;1.20;1.10;;;5.50;68.30;;;;;;5054322;28;20202;-44
2022/04/02 12:20:38;;;;;;;1.40;1.20;;;5.60;69.20;;;;;;5063268;28;20199;-46
2022/04/02 12:23:09;;;;;;;1.27;1.03;;;5.90;69.30;;;;;;5055573;28;20570;-46
2022/04/02 12:25:36;;;;;;;2.83;1.43;;;6.20;68.60;;;;;;5048985;28;20210;-46
2022/04/02 12:28:12;;;;;;;1.87;0.77;;;6.30;67.50;;;;;;5056910;28;20229;-46
2022/04/02 12:30:43;;;;;;;1.07;0.90;;;6.30;67.50;;;;;;5049778;28;20194;-46
2022/04/02 12:33:14;;;;;;;1.23;1.10;;;6.20;65.20;;;;;;5064662;28;20202;-50
2022/04/02 12:35:45;;;;;;;1.93;1.20;;;5.90;64.20;;;;;;5054543;28;20931;-47
2022/04/02 12:38:25;;;;;;;0.90;0.90;;;5.70;65.50;;;;;;5062506;28;20252;-43
2022/04/02 12:40:52;;;;;;;1.27;1.17;;;5.80;66.10;;;;;;5057946;28;20190;-43
2022/04/02 12:43:27;;;;;;;2.00;1.00;;;6.00;65.90;;;;;;5057720;28;20229;-48
2022/04/02 12:45:55;;;;;;;1.30;1.20;;;6.30;67.00;;;;;;5045185;28;20306;-44
2022/04/02 12:48:24;;;;;;;1.40;1.00;;;6.40;66.80;;;;;;5058830;28;20303;-47
2022/04/02 12:50:53;;;;;;;1.13;1.03;;;6.60;65.20;;;;;;5057759;28;20199;-46
2022/04/02 12:53:30;;;;;;;1.37;0.87;;;6.50;64.50;;;;;;5062132;28;20201;-49
2022/04/02 12:55:58;;;;;;;2.20;1.13;;;6.30;65.40;;;;;;5059304;28;20221;-43
2022/04/02 12:58:38;;;;;;;1.43;1.33;;;6.10;64.40;;;;;;5050649;28;20260;-50
2022/04/02 13:01:13;;;;;;;1.67;1.50;;;5.90;64.00;;;;;;5060700;28;20214;-48
2022/04/02 13:03:44;;;;;;;2.83;1.07;;;6.20;66.20;;;;;;5044228;28;20272;-49
2022/04/02 13:06:22;;;;;;;2.30;1.30;;;6.60;66.00;;;;;;5053070;28;20221;-49
2022/04/02 13:08:57;;;;;;;1.33;1.17;;;6.70;63.20;;;;;;5059295;28;20927;-49
2022/04/02 13:11:38;;;;;;;0.70;0.70;;;6.40;64.40;;;;;;5055372;28;20226;-51
2022/04/02 13:14:14;;;;;;;1.20;1.00;;;6.60;66.40;;;;;;5056300;28;20207;-47
2022/04/02 13:16:41;;;;;;;1.23;1.13;;;7.10;64.10;;;;;;5053517;28;20213;-51
2022/04/02 13:22:01;;;;;;;1.30;1.20;;;6.90;63.10;;;;;;5055268;28;20828;-52
2022/04/02 13:24:30;;;;;;;1.27;1.00;;;6.60;63.50;;;;;;5052108;28;20210;-52
2022/04/02 13:27:40;;;;;;;1.80;1.07;;;6.40;63.00;;;;;;5057891;28;20242;-49
2022/04/02 13:30:10;;;;;;;1.20;1.00;;;6.80;65.30;;;;;;5053403;28;20206;-49
2022/04/02 13:32:55;;;;;;;2.90;1.20;;;7.00;63.90;;;;;;5048620;28;20197;-50